createdAt,value
2019-03-24T00:00:44.356Z,123.00
2019-03-24T00:03:13.736Z,94.50
2019-03-24T00:05:43.113Z,105.03
2019-03-24T00:08:12.811Z,109.20
2019-03-24T00:10:42.512Z,105.23
2019-03-24T00:13:12.038Z,89.23
2019-03-24T00:15:41.525Z,88.97
2019-03-24T00:18:10.911Z,74.87
2019-03-24T00:20:40.263Z,66.07
2019-03-24T00:23:09.651Z,75.60
2019-03-24T00:25:39.227Z,70.30
2019-03-24T00:28:08.602Z,77.43
2019-03-24T00:30:38.058Z,60.90
2019-03-24T00:33:07.577Z,71.20
2019-03-24T00:35:36.974Z,60.33
2019-03-24T00:38:06.381Z,79.43
2019-03-24T00:40:35.815Z,62.43
2019-03-24T00:43:05.402Z,74.27
2019-03-24T00:45:37.105Z,81.23
2019-03-24T00:48:06.048Z,69.93
2019-03-24T00:50:35.447Z,69.20
2019-03-24T00:53:04.980Z,62.13
2019-03-24T00:55:34.440Z,62.53
2019-03-24T00:58:03.866Z,62.90
2019-03-24T01:00:47.573Z,62.80
2019-03-24T01:03:17.822Z,60.73
2019-03-24T01:05:47.622Z,58.17
2019-03-24T01:08:17.383Z,62.50
2019-03-24T01:10:46.087Z,62.07
2019-03-24T01:13:16.235Z,63.97
2019-03-24T01:15:48.067Z,64.57
2019-03-24T01:18:17.912Z,46.13
2019-03-24T01:20:47.264Z,49.93
2019-03-24T01:23:16.782Z,42.60
2019-03-24T01:25:46.302Z,35.87
2019-03-24T01:28:15.814Z,40.73
2019-03-24T01:30:45.395Z,36.03
2019-03-24T01:33:14.944Z,37.87
2019-03-24T01:35:44.377Z,35.70
2019-03-24T01:38:13.882Z,37.27
2019-03-24T01:40:43.414Z,34.67
2019-03-24T01:43:12.897Z,38.53
2019-03-24T01:45:42.389Z,35.13
2019-03-24T01:48:12.074Z,37.30
2019-03-24T01:50:41.445Z,36.60
2019-03-24T01:53:10.811Z,31.50
2019-03-24T01:55:40.257Z,32.90
2019-03-24T01:58:09.691Z,36.70
2019-03-24T02:00:39.600Z,34.27
2019-03-24T02:03:08.995Z,29.33
2019-03-24T02:05:38.854Z,31.00
2019-03-24T02:08:08.538Z,37.80
2019-03-24T02:10:38.212Z,28.63
2019-03-24T02:13:07.738Z,29.60
2019-03-24T02:15:37.154Z,36.37
2019-03-24T02:18:06.750Z,32.60
2019-03-24T02:20:36.118Z,34.13
2019-03-24T02:23:05.884Z,26.53
2019-03-24T02:25:35.392Z,39.20
2019-03-24T02:28:04.879Z,40.57
2019-03-24T02:30:34.340Z,49.17
2019-03-24T02:33:03.712Z,31.10
2019-03-24T02:35:33.059Z,30.83
2019-03-24T02:38:02.547Z,27.77
2019-03-24T02:40:32.071Z,32.73
2019-03-24T02:43:01.424Z,30.53
2019-03-24T02:45:30.893Z,36.67
2019-03-24T02:48:00.258Z,27.03
2019-03-24T02:50:29.623Z,24.37
2019-03-24T02:52:59.044Z,37.17
2019-03-24T02:55:28.711Z,32.03
2019-03-24T02:57:58.606Z,29.27
2019-03-24T03:00:28.151Z,33.53
2019-03-24T03:02:57.576Z,34.70
2019-03-24T03:05:27.642Z,30.90
2019-03-24T03:07:57.161Z,31.80
2019-03-24T03:10:26.680Z,30.67
2019-03-24T03:12:56.167Z,37.73
2019-03-24T03:15:26.047Z,29.43
2019-03-24T03:17:55.552Z,25.03
2019-03-24T03:20:24.996Z,21.87
2019-03-24T03:22:54.385Z,29.97
2019-03-24T03:25:23.828Z,27.83
2019-03-24T03:27:53.188Z,28.90
2019-03-24T03:30:22.911Z,29.43
2019-03-24T03:32:52.344Z,30.20
2019-03-24T03:35:21.810Z,29.13
2019-03-24T03:37:51.298Z,26.97
2019-03-24T03:40:20.960Z,31.90
2019-03-24T03:42:50.335Z,30.03
2019-03-24T03:45:27.834Z,27.53
2019-03-24T03:47:57.359Z,26.67
2019-03-24T03:50:26.885Z,34.30
2019-03-24T03:52:56.613Z,31.77
2019-03-24T03:55:26.071Z,31.10
2019-03-24T03:57:55.488Z,26.73
2019-03-24T04:00:33.787Z,34.53
2019-03-24T04:03:03.387Z,34.33
2019-03-24T04:05:32.942Z,32.63
2019-03-24T04:08:02.903Z,32.33
2019-03-24T04:10:32.374Z,34.17
2019-03-24T04:13:01.732Z,32.77
2019-03-24T04:15:31.187Z,28.57
2019-03-24T04:18:00.686Z,34.17
2019-03-24T04:20:30.086Z,46.63
2019-03-24T04:22:59.528Z,52.83
2019-03-24T04:25:29.001Z,47.03
2019-03-24T04:27:58.519Z,42.13
2019-03-24T04:30:27.975Z,46.57
2019-03-24T04:32:57.346Z,34.73
2019-03-24T04:35:27.020Z,35.67
2019-03-24T04:37:56.359Z,46.93
2019-03-24T04:40:25.740Z,39.20
2019-03-24T04:42:55.203Z,41.13
2019-03-24T04:45:24.544Z,31.83
2019-03-24T04:47:53.887Z,41.70
2019-03-24T04:50:23.231Z,47.87
2019-03-24T04:52:52.948Z,32.40
2019-03-24T04:55:22.434Z,36.17
2019-03-24T04:57:51.824Z,52.60
2019-03-24T05:00:33.539Z,43.20
2019-03-24T05:03:02.931Z,39.50
2019-03-24T05:05:32.652Z,40.90
2019-03-24T05:08:02.879Z,44.73
2019-03-24T05:10:32.395Z,42.70
2019-03-24T05:13:01.836Z,40.57
2019-03-24T05:15:31.319Z,48.67
2019-03-24T05:18:01.100Z,46.63
2019-03-24T05:20:30.569Z,42.57
2019-03-24T05:23:00.099Z,50.33
2019-03-24T05:25:29.487Z,43.23
2019-03-24T05:27:58.833Z,54.47
2019-03-24T05:30:28.335Z,55.33
2019-03-24T05:32:57.741Z,48.77
2019-03-24T05:35:27.171Z,47.47
2019-03-24T05:37:56.663Z,49.17
2019-03-24T05:40:26.135Z,47.90
2019-03-24T05:42:56.087Z,50.30
2019-03-24T05:45:25.450Z,44.00
2019-03-24T05:47:54.867Z,42.93
2019-03-24T05:50:24.252Z,40.53
2019-03-24T05:52:53.608Z,47.57
2019-03-24T05:55:23.037Z,53.63
2019-03-24T05:57:52.464Z,54.17
2019-03-24T06:00:21.980Z,50.30
2019-03-24T06:02:51.782Z,54.27
2019-03-24T06:05:21.365Z,61.27
2019-03-24T06:07:50.840Z,61.93
2019-03-24T06:10:20.381Z,68.17
2019-03-24T06:12:50.039Z,57.43
2019-03-24T06:15:19.462Z,54.97
2019-03-24T06:17:49.014Z,63.30
2019-03-24T06:20:18.447Z,62.70
2019-03-24T06:22:47.892Z,49.93
2019-03-24T06:25:17.252Z,54.60
2019-03-24T06:27:46.605Z,58.57
2019-03-24T06:30:16.579Z,57.53
2019-03-24T06:32:46.005Z,52.90
2019-03-24T06:35:15.506Z,68.97
2019-03-24T06:37:45.027Z,49.03
2019-03-24T06:40:14.597Z,60.67
2019-03-24T06:42:43.975Z,61.13
2019-03-24T06:45:13.560Z,66.07
2019-03-24T06:47:42.929Z,49.87
2019-03-24T06:50:12.708Z,62.80
2019-03-24T06:52:42.095Z,69.77
2019-03-24T06:55:11.650Z,62.37
2019-03-24T06:57:41.410Z,80.87
2019-03-24T07:00:12.467Z,69.43
2019-03-24T07:02:42.145Z,103.27
2019-03-24T07:05:11.914Z,65.37
2019-03-24T07:07:41.294Z,67.33
2019-03-24T07:10:11.747Z,63.37
2019-03-24T07:12:41.291Z,59.30
2019-03-24T07:15:11.494Z,64.73
2019-03-24T07:17:40.981Z,69.77
2019-03-24T07:20:11.296Z,72.97
2019-03-24T07:22:40.752Z,70.43
2019-03-24T07:25:10.697Z,69.53
2019-03-24T07:27:40.235Z,70.23
2019-03-24T07:30:10.334Z,59.10
2019-03-24T07:32:39.727Z,61.97
2019-03-24T07:35:09.492Z,64.63
2019-03-24T07:37:38.922Z,56.07
2019-03-24T07:40:09.951Z,58.23
2019-03-24T07:42:39.338Z,72.47
2019-03-24T07:45:09.952Z,59.43
2019-03-24T07:47:39.491Z,52.60
2019-03-24T07:50:11.401Z,55.77
2019-03-24T07:52:40.824Z,61.60
2019-03-24T07:55:10.328Z,50.00
2019-03-24T07:57:39.895Z,71.20
2019-03-24T08:00:10.416Z,66.73
2019-03-24T08:02:51.038Z,58.13
2019-03-24T08:05:15.686Z,55.67
2019-03-24T08:07:45.047Z,60.50
2019-03-24T08:10:14.482Z,60.07
2019-03-24T08:12:43.926Z,61.03
2019-03-24T08:15:13.527Z,56.73
2019-03-24T08:17:42.887Z,51.02
2019-03-24T08:20:12.775Z,54.23
2019-03-24T08:22:42.286Z,58.57
2019-03-24T08:25:11.822Z,59.07
2019-03-24T08:27:41.766Z,58.73
2019-03-24T08:30:11.720Z,56.57
2019-03-24T08:32:41.069Z,47.73
2019-03-24T08:35:10.550Z,70.93
2019-03-24T08:37:40.269Z,66.33
2019-03-24T08:40:10.059Z,61.90
2019-03-24T08:42:39.535Z,59.17
2019-03-24T08:45:12.901Z,58.83
2019-03-24T08:47:42.339Z,48.20
2019-03-24T08:50:12.096Z,50.73
2019-03-24T08:52:41.462Z,58.50
2019-03-24T08:55:10.983Z,50.73
2019-03-24T08:57:40.504Z,56.45
2019-03-24T09:00:10.117Z,55.77
2019-03-24T09:02:39.486Z,47.10
2019-03-24T09:05:09.486Z,50.17
2019-03-24T09:07:38.906Z,47.70
2019-03-24T09:10:09.138Z,59.10
2019-03-24T09:12:38.510Z,48.90
2019-03-24T09:15:08.152Z,47.07
2019-03-24T09:17:37.532Z,44.83
2019-03-24T09:20:07.636Z,40.77
2019-03-24T09:22:37.069Z,50.90
2019-03-24T09:25:07.473Z,43.40
2019-03-24T09:27:37.127Z,61.60
2019-03-24T09:30:09.951Z,52.40
2019-03-24T09:32:39.383Z,46.33
2019-03-24T09:35:09.423Z,58.10
2019-03-24T09:37:39.458Z,49.07
2019-03-24T09:40:12.603Z,53.27
2019-03-24T09:42:41.993Z,52.13
2019-03-24T09:45:11.751Z,45.33
2019-03-24T09:47:41.175Z,58.33
2019-03-24T09:50:10.803Z,41.63
2019-03-24T09:52:40.318Z,50.67
2019-03-24T09:55:10.062Z,45.50
2019-03-24T09:57:39.460Z,56.13
2019-03-24T10:00:09.412Z,43.30
2019-03-24T10:02:39.023Z,47.60
2019-03-24T10:05:09.026Z,42.30
2019-03-24T10:07:38.557Z,53.53
2019-03-24T10:10:09.371Z,48.57
2019-03-24T10:12:38.750Z,49.00
2019-03-24T10:15:08.371Z,38.50
2019-03-24T10:17:37.718Z,45.63
2019-03-24T10:20:07.495Z,44.37
2019-03-24T10:22:36.917Z,43.93
2019-03-24T10:25:06.908Z,42.60
2019-03-24T10:27:36.285Z,37.83
2019-03-24T10:30:06.428Z,44.70
2019-03-24T10:32:35.796Z,38.63
2019-03-24T10:35:05.283Z,39.53
2019-03-24T10:37:34.649Z,38.90
2019-03-24T10:40:04.163Z,37.47
2019-03-24T10:42:33.778Z,35.47
2019-03-24T10:45:03.390Z,33.97
2019-03-24T10:47:33.752Z,41.30
2019-03-24T10:50:03.349Z,35.10
2019-03-24T10:52:32.770Z,49.43
2019-03-24T10:55:02.278Z,32.60
2019-03-24T10:57:31.830Z,43.67
2019-03-24T11:00:01.260Z,26.47
2019-03-24T11:02:31.650Z,37.80
2019-03-24T11:05:01.961Z,38.70
2019-03-24T11:07:32.395Z,33.30
2019-03-24T11:10:02.003Z,30.93
2019-03-24T11:12:31.460Z,29.13
2019-03-24T11:15:00.918Z,37.77
2019-03-24T11:17:30.409Z,43.90
2019-03-24T11:19:59.791Z,40.67
2019-03-24T11:22:29.813Z,33.10
2019-03-24T11:24:59.451Z,33.23
2019-03-24T11:27:29.120Z,30.60
2019-03-24T11:29:58.832Z,43.87
2019-03-24T11:32:28.423Z,23.13
2019-03-24T11:34:58.164Z,28.83
2019-03-24T11:37:27.633Z,35.60
2019-03-24T11:39:56.985Z,30.90
2019-03-24T11:42:26.403Z,32.43
2019-03-24T11:44:56.190Z,25.27
2019-03-24T11:47:26.918Z,26.53
2019-03-24T11:49:56.546Z,20.87
2019-03-24T11:52:26.847Z,27.67
2019-03-24T11:54:56.305Z,26.00
2019-03-24T11:57:25.818Z,18.70
2019-03-24T11:59:55.206Z,21.47
2019-03-24T12:02:27.331Z,25.27
2019-03-24T12:04:56.883Z,35.00
2019-03-24T12:07:26.423Z,35.57
2019-03-24T12:09:55.859Z,24.13
2019-03-24T12:12:25.598Z,31.23
2019-03-24T12:14:55.590Z,35.00
2019-03-24T12:17:25.061Z,28.80
2019-03-24T12:19:57.085Z,33.20
2019-03-24T12:22:26.175Z,40.53
2019-03-24T12:24:55.532Z,31.00
2019-03-24T12:27:24.882Z,35.40
2019-03-24T12:29:56.611Z,26.40
2019-03-24T12:32:26.551Z,23.67
2019-03-24T12:34:55.978Z,25.53
2019-03-24T12:37:25.508Z,22.93
2019-03-24T12:39:58.048Z,19.37
2019-03-24T12:42:27.739Z,23.87
2019-03-24T12:44:57.411Z,18.33
2019-03-24T12:47:45.741Z,18.40
2019-03-24T12:50:15.271Z,24.30
2019-03-24T12:52:44.709Z,16.50
2019-03-24T12:55:14.393Z,23.93
2019-03-24T12:57:44.228Z,26.63
2019-03-24T13:00:18.143Z,17.57
2019-03-24T13:02:47.645Z,18.73
2019-03-24T13:05:17.214Z,15.27
2019-03-24T13:07:47.173Z,16.47
2019-03-24T13:10:16.965Z,18.90
2019-03-24T13:12:46.755Z,21.63
2019-03-24T13:15:16.308Z,22.47
2019-03-24T13:17:45.885Z,12.60
2019-03-24T13:20:21.332Z,21.30
2019-03-24T13:22:46.848Z,15.30
2019-03-24T13:25:16.257Z,18.83
2019-03-24T13:27:45.689Z,12.37
2019-03-24T13:30:15.342Z,7.73
2019-03-24T13:32:44.676Z,17.03
2019-03-24T13:35:14.194Z,6.10
2019-03-24T13:37:43.702Z,10.00
2019-03-24T13:40:13.222Z,16.77
2019-03-24T13:42:42.763Z,7.63
2019-03-24T13:45:12.303Z,14.07
2019-03-24T13:47:42.071Z,16.53
2019-03-24T13:50:11.883Z,17.23
2019-03-24T13:52:41.283Z,6.20
2019-03-24T13:55:10.774Z,7.37
2019-03-24T13:57:40.255Z,13.65
2019-03-24T14:00:11.524Z,11.37
2019-03-24T14:02:41.233Z,12.73
2019-03-24T14:05:10.983Z,12.13
2019-03-24T14:07:40.465Z,6.50
2019-03-24T14:10:10.192Z,13.93
2019-03-24T14:12:39.572Z,8.30
2019-03-24T14:15:10.240Z,5.17
2019-03-24T14:17:39.672Z,10.17
2019-03-24T14:20:10.122Z,12.87
2019-03-24T14:22:39.859Z,14.80
2019-03-24T14:25:09.951Z,8.40
2019-03-24T14:27:39.423Z,10.23
2019-03-24T14:30:10.600Z,6.77
2019-03-24T14:32:40.471Z,13.23
2019-03-24T14:35:10.060Z,12.00
2019-03-24T14:37:39.586Z,7.70
2019-03-24T14:40:09.574Z,16.30
2019-03-24T14:42:38.954Z,11.57
2019-03-24T14:45:08.766Z,4.10
2019-03-24T14:47:38.358Z,7.80
2019-03-24T14:50:08.267Z,8.80
2019-03-24T14:52:37.682Z,12.63
2019-03-24T14:55:07.419Z,8.03
2019-03-24T14:57:36.956Z,5.50
2019-03-24T15:00:07.784Z,7.73
2019-03-24T15:02:37.350Z,10.63
2019-03-24T15:05:08.123Z,10.70
2019-03-24T15:07:37.615Z,7.03
2019-03-24T15:10:07.659Z,11.10
2019-03-24T15:12:37.939Z,9.93
2019-03-24T15:15:07.780Z,8.33
2019-03-24T15:17:37.187Z,11.70
2019-03-24T15:20:06.879Z,7.93
2019-03-24T15:22:36.318Z,10.70
2019-03-24T15:25:05.927Z,11.20
2019-03-24T15:27:35.279Z,9.43
2019-03-24T15:30:06.028Z,34.27
2019-03-24T15:32:35.458Z,11.40
2019-03-24T15:35:05.129Z,7.93
2019-03-24T15:37:34.647Z,9.37
2019-03-24T15:40:04.624Z,5.83
2019-03-24T15:42:34.388Z,5.20
2019-03-24T15:45:03.944Z,9.47
2019-03-24T15:47:34.598Z,3.43
2019-03-24T15:50:04.282Z,5.50
2019-03-24T15:52:38.442Z,5.03
2019-03-24T15:55:10.015Z,6.10
2019-03-24T15:57:39.536Z,7.40
2019-03-24T16:00:10.387Z,2.30
2019-03-24T16:02:40.048Z,9.20
2019-03-24T16:05:10.285Z,4.90
2019-03-24T16:07:39.662Z,5.43
2019-03-24T16:10:09.560Z,22.63
2019-03-24T16:12:39.026Z,6.43
2019-03-24T16:15:08.802Z,4.07
2019-03-24T16:17:38.565Z,6.70
2019-03-24T16:20:09.099Z,4.40
2019-03-24T16:22:38.511Z,5.87
2019-03-24T16:25:08.294Z,10.63
2019-03-24T16:27:37.894Z,7.17
2019-03-24T16:30:08.980Z,7.13
2019-03-24T16:32:38.741Z,7.83
2019-03-24T16:35:08.211Z,8.50
2019-03-24T16:37:37.795Z,5.17
2019-03-24T16:40:07.287Z,8.63
2019-03-24T16:42:36.813Z,8.27
2019-03-24T16:45:06.686Z,5.07
2019-03-24T16:47:36.237Z,5.23
2019-03-24T16:50:06.024Z,11.07
2019-03-24T16:52:35.887Z,7.23
2019-03-24T16:55:05.846Z,7.70
2019-03-24T16:57:35.228Z,15.53
2019-03-24T17:00:05.481Z,3.63
2019-03-24T17:02:43.643Z,7.80
2019-03-24T17:05:13.204Z,5.03
2019-03-24T17:07:42.670Z,14.37
2019-03-24T17:10:12.693Z,9.73
2019-03-24T17:12:42.300Z,6.60
2019-03-24T17:15:12.151Z,7.43
2019-03-24T17:17:41.938Z,9.60
2019-03-24T17:20:11.699Z,8.27
2019-03-24T17:22:41.175Z,2.53
2019-03-24T17:25:11.154Z,5.33
2019-03-24T17:27:40.921Z,4.60
2019-03-24T17:30:12.207Z,9.50
2019-03-24T17:32:42.049Z,6.83
2019-03-24T17:35:11.855Z,5.87
2019-03-24T17:37:41.431Z,7.20
2019-03-24T17:40:12.575Z,4.33
2019-03-24T17:42:42.020Z,6.00
2019-03-24T17:45:12.569Z,10.27
2019-03-24T17:47:42.038Z,5.00
2019-03-24T17:50:12.266Z,10.07
2019-03-24T17:52:41.927Z,12.30
2019-03-24T17:55:12.161Z,10.20
2019-03-24T17:57:41.864Z,6.20
2019-03-24T18:00:12.540Z,10.40
2019-03-24T18:02:42.068Z,7.27
2019-03-24T18:05:13.035Z,11.10
2019-03-24T18:07:42.872Z,10.38
2019-03-24T18:10:12.630Z,6.30
2019-03-24T18:12:42.002Z,6.83
2019-03-24T18:15:11.970Z,7.67
2019-03-24T18:17:41.596Z,8.83
2019-03-24T18:20:14.664Z,10.27
2019-03-24T18:22:44.134Z,8.57
2019-03-24T18:25:13.696Z,6.27
2019-03-24T18:27:43.468Z,9.63
2019-03-24T18:30:14.059Z,7.13
2019-03-24T18:32:43.482Z,5.40
2019-03-24T18:35:13.211Z,9.17
2019-03-24T18:37:42.641Z,10.23
2019-03-24T18:40:13.493Z,12.73
2019-03-24T18:42:43.019Z,10.37
2019-03-24T18:45:13.972Z,11.27
2019-03-24T18:47:43.412Z,9.70
2019-03-24T18:50:13.121Z,9.33
2019-03-24T18:52:42.569Z,11.60
2019-03-24T18:55:12.305Z,10.03
2019-03-24T18:57:41.823Z,8.47
2019-03-24T19:00:12.009Z,14.53
2019-03-24T19:02:41.551Z,7.33
2019-03-24T19:05:11.203Z,6.57
2019-03-24T19:07:40.619Z,7.00
2019-03-24T19:10:12.021Z,11.13
2019-03-24T19:12:41.755Z,7.90
2019-03-24T19:15:11.850Z,8.17
2019-03-24T19:17:41.529Z,16.30
2019-03-24T19:20:13.436Z,13.07
2019-03-24T19:22:42.892Z,4.50
2019-03-24T19:25:12.789Z,7.90
2019-03-24T19:27:42.279Z,10.93
2019-03-24T19:30:13.421Z,10.33
2019-03-24T19:32:42.975Z,13.17
2019-03-24T19:35:12.808Z,18.73
2019-03-24T19:37:44.498Z,15.67
2019-03-24T19:40:26.308Z,10.07
2019-03-24T19:42:55.839Z,14.77
2019-03-24T19:45:25.918Z,10.87
2019-03-24T19:47:55.709Z,18.57
2019-03-24T19:50:25.632Z,8.27
2019-03-24T19:52:55.024Z,11.40
2019-03-24T19:55:24.517Z,13.00
2019-03-24T19:57:54.383Z,10.40
2019-03-24T20:00:23.816Z,13.13
2019-03-24T20:02:53.577Z,13.33
2019-03-24T20:05:22.940Z,16.37
2019-03-24T20:07:52.290Z,5.47
2019-03-24T20:10:21.684Z,13.20
2019-03-24T20:12:51.016Z,22.87
2019-03-24T20:15:20.538Z,11.00
2019-03-24T20:17:50.049Z,12.83
2019-03-24T20:20:20.214Z,13.10
2019-03-24T20:22:56.327Z,15.87
2019-03-24T20:25:20.811Z,15.67
2019-03-24T20:27:50.226Z,11.87
2019-03-24T20:30:19.988Z,30.23
2019-03-24T20:32:49.435Z,9.17
2019-03-24T20:35:18.771Z,8.90
2019-03-24T20:37:48.379Z,10.53
2019-03-24T20:40:17.819Z,12.53
2019-03-24T20:42:47.255Z,13.30
2019-03-24T20:45:16.787Z,11.27
2019-03-24T20:47:46.639Z,28.10
2019-03-24T20:50:16.478Z,10.27
2019-03-24T20:52:45.860Z,9.63
2019-03-24T20:55:15.479Z,8.00
2019-03-24T20:57:45.142Z,27.87
2019-03-24T21:00:16.041Z,11.03
2019-03-24T21:02:46.934Z,8.10
2019-03-24T21:05:16.369Z,12.40
2019-03-24T21:07:46.657Z,12.43
2019-03-24T21:10:16.133Z,18.53
2019-03-24T21:12:45.499Z,16.90
2019-03-24T21:15:15.388Z,18.63
2019-03-24T21:17:44.777Z,13.80
2019-03-24T21:20:14.456Z,17.30
2019-03-24T21:22:45.003Z,13.40
2019-03-24T21:25:14.493Z,18.73
2019-03-24T21:27:43.873Z,10.63
2019-03-24T21:30:13.992Z,23.60
2019-03-24T21:32:43.780Z,6.40
2019-03-24T21:35:13.441Z,10.23
2019-03-24T21:37:43.466Z,17.83
2019-03-24T21:40:13.004Z,16.73
2019-03-24T21:42:42.460Z,16.33
2019-03-24T21:45:12.206Z,15.87
2019-03-24T21:47:42.213Z,7.90
2019-03-24T21:50:12.390Z,9.53
2019-03-24T21:52:41.866Z,14.83
2019-03-24T21:55:11.850Z,10.53
2019-03-24T21:57:41.448Z,10.23
2019-03-24T22:00:11.373Z,17.33
2019-03-24T22:02:40.955Z,28.40
2019-03-24T22:05:10.828Z,9.10
2019-03-24T22:07:40.335Z,11.73
2019-03-24T22:10:09.957Z,17.50
2019-03-24T22:12:39.397Z,14.70
2019-03-24T22:15:09.376Z,8.03
2019-03-24T22:17:38.907Z,16.07
2019-03-24T22:20:08.778Z,20.63
2019-03-24T22:22:38.498Z,11.57
2019-03-24T22:25:10.976Z,21.90
2019-03-24T22:27:40.478Z,12.03
2019-03-24T22:30:10.419Z,14.37
2019-03-24T22:32:39.875Z,14.10
2019-03-24T22:35:09.879Z,10.87
2019-03-24T22:37:39.317Z,18.20
2019-03-24T22:40:09.991Z,8.80
2019-03-24T22:42:39.395Z,12.53
2019-03-24T22:45:09.165Z,15.07
2019-03-24T22:47:38.524Z,18.87
2019-03-24T22:50:11.230Z,8.73
2019-03-24T22:52:40.565Z,20.70
2019-03-24T22:55:11.438Z,21.50
2019-03-24T22:57:40.869Z,17.50
2019-03-24T23:00:18.262Z,20.57
2019-03-24T23:02:47.736Z,27.50
2019-03-24T23:05:17.242Z,19.23
2019-03-24T23:07:46.722Z,27.23
2019-03-24T23:10:16.480Z,21.77
2019-03-24T23:12:45.899Z,20.47
2019-03-24T23:15:15.508Z,16.57
2019-03-24T23:17:45.123Z,21.17
2019-03-24T23:20:14.742Z,20.93
2019-03-24T23:22:44.114Z,16.10
2019-03-24T23:25:13.568Z,22.87
2019-03-24T23:27:42.897Z,20.63
2019-03-24T23:30:12.817Z,20.40
2019-03-24T23:32:42.345Z,20.07
2019-03-24T23:35:12.134Z,15.97
2019-03-24T23:37:42.041Z,11.67
2019-03-24T23:40:11.797Z,13.30
2019-03-24T23:42:41.540Z,13.03
2019-03-24T23:45:11.218Z,17.80
2019-03-24T23:47:40.584Z,16.23
2019-03-24T23:50:10.183Z,14.87
2019-03-24T23:52:39.830Z,21.50
2019-03-24T23:55:09.474Z,18.50
2019-03-24T23:57:39.427Z,11.50
